createdAt,value
2022-08-29T00:00:30.932Z,15.67
2022-08-29T00:02:58.141Z,15.73
2022-08-29T00:05:27.559Z,15.57
2022-08-29T00:07:54.032Z,15.51
2022-08-29T00:10:22.012Z,15.59
2022-08-29T00:12:48.665Z,15.59
2022-08-29T00:15:15.739Z,15.52
2022-08-29T00:17:42.633Z,15.54
2022-08-29T00:20:13.685Z,15.67
2022-08-29T00:22:40.388Z,15.63
2022-08-29T00:25:08.473Z,15.57
2022-08-29T00:27:35.355Z,15.45
2022-08-29T00:30:02.180Z,15.44
2022-08-29T00:32:34.961Z,15.66
2022-08-29T00:35:06.852Z,15.51
2022-08-29T00:37:33.898Z,15.56
2022-08-29T00:40:00.539Z,15.46
2022-08-29T00:42:27.915Z,15.46
2022-08-29T00:44:54.794Z,15.32
2022-08-29T00:47:26.779Z,15.36
2022-08-29T00:49:57.142Z,15.39
2022-08-29T00:52:32.425Z,15.32
2022-08-29T00:55:01.747Z,15.23
2022-08-29T00:57:32.294Z,15.54
2022-08-29T00:59:59.848Z,15.37
2022-08-29T01:02:26.745Z,15.48
2022-08-29T01:04:53.292Z,15.18
2022-08-29T01:07:20.258Z,15.16
2022-08-29T01:09:47.074Z,15.21
2022-08-29T01:12:19.299Z,15.08
2022-08-29T01:14:53.178Z,15.16
2022-08-29T01:17:27.959Z,15.14
2022-08-29T01:20:11.090Z,15.07
2022-08-29T01:23:06.436Z,15.11
2022-08-29T01:25:40.985Z,15.13
2022-08-29T01:28:14.662Z,15.15
2022-08-29T01:31:00.054Z,15.24
2022-08-29T01:33:26.803Z,15.28
2022-08-29T01:35:53.674Z,15.40
2022-08-29T01:38:27.639Z,15.41
2022-08-29T01:40:58.851Z,15.34
2022-08-29T01:43:27.014Z,15.41
2022-08-29T01:45:53.964Z,15.37
2022-08-29T01:48:20.951Z,15.52
2022-08-29T01:50:47.736Z,15.56
2022-08-29T01:53:14.784Z,15.55
2022-08-29T01:55:42.716Z,15.73
2022-08-29T01:58:09.287Z,15.61
2022-08-29T02:00:36.432Z,15.82
2022-08-29T02:03:03.227Z,15.78
2022-08-29T02:05:30.561Z,16.01
2022-08-29T02:07:57.337Z,15.71
2022-08-29T02:10:24.241Z,15.69
2022-08-29T02:12:50.730Z,15.80
2022-08-29T02:15:18.964Z,15.83
2022-08-29T02:17:45.819Z,15.91
2022-08-29T02:20:15.663Z,16.03
2022-08-29T02:22:42.315Z,16.18
2022-08-29T02:25:28.834Z,16.00
2022-08-29T02:27:55.917Z,15.97
2022-08-29T02:30:23.408Z,16.26
2022-08-29T02:32:50.504Z,16.36
2022-08-29T02:35:17.350Z,16.09
2022-08-29T02:37:44.179Z,16.03
2022-08-29T02:40:11.018Z,15.98
2022-08-29T02:42:38.138Z,16.06
2022-08-29T02:45:05.730Z,15.97
2022-08-29T02:47:36.428Z,16.00
2022-08-29T02:50:09.172Z,16.19
2022-08-29T02:52:39.935Z,16.09
2022-08-29T02:55:07.791Z,16.00
2022-08-29T02:57:34.273Z,15.98
2022-08-29T03:00:00.781Z,16.05
2022-08-29T03:02:27.798Z,16.14
2022-08-29T03:04:54.297Z,16.30
2022-08-29T03:07:20.765Z,16.29
2022-08-29T03:09:47.275Z,16.44
2022-08-29T03:12:13.728Z,16.25
2022-08-29T03:14:40.176Z,16.45
2022-08-29T03:17:06.628Z,16.15
2022-08-29T03:19:37.475Z,16.00
2022-08-29T03:22:04.138Z,16.07
2022-08-29T03:24:30.843Z,16.19
2022-08-29T03:26:58.920Z,16.00
2022-08-29T03:29:25.538Z,15.97
2022-08-29T03:31:52.222Z,15.66
2022-08-29T03:34:18.699Z,15.79
2022-08-29T03:36:45.159Z,15.86
2022-08-29T03:39:11.613Z,15.97
2022-08-29T03:41:38.072Z,15.87
2022-08-29T03:44:04.598Z,15.74
2022-08-29T03:46:31.098Z,15.58
2022-08-29T03:48:57.601Z,15.57
2022-08-29T03:51:25.052Z,15.56
2022-08-29T03:53:56.120Z,15.69
2022-08-29T03:56:22.998Z,15.69
2022-08-29T03:58:53.239Z,15.55
2022-08-29T04:01:22.496Z,15.31
2022-08-29T04:03:49.394Z,15.56
2022-08-29T04:06:16.533Z,15.44
2022-08-29T04:08:43.454Z,15.45
2022-08-29T04:11:11.576Z,15.54
2022-08-29T04:13:38.522Z,15.46
2022-08-29T04:16:17.140Z,15.40
2022-08-29T04:18:43.969Z,15.54
2022-08-29T04:21:11.584Z,15.64
2022-08-29T04:23:40.464Z,15.57
2022-08-29T04:26:35.574Z,15.83
2022-08-29T04:29:01.619Z,15.90
2022-08-29T04:31:28.144Z,15.58
2022-08-29T04:33:54.604Z,15.87
2022-08-29T04:36:21.141Z,15.68
2022-08-29T04:38:47.616Z,15.66
2022-08-29T04:41:14.906Z,15.70
2022-08-29T04:43:42.419Z,15.87
2022-08-29T04:46:09.466Z,15.62
2022-08-29T04:48:49.938Z,15.56
2022-08-29T04:51:16.521Z,15.59
2022-08-29T04:53:42.989Z,15.79
2022-08-29T04:56:11.842Z,15.79
2022-08-29T04:58:39.979Z,15.83
2022-08-29T05:01:07.456Z,15.64
2022-08-29T05:03:34.884Z,15.79
2022-08-29T05:06:06.969Z,15.93
2022-08-29T05:08:35.356Z,15.67
2022-08-29T05:11:01.769Z,15.79
2022-08-29T05:13:28.317Z,15.80
2022-08-29T05:15:54.907Z,15.73
2022-08-29T05:18:21.375Z,15.77
2022-08-29T05:20:48.979Z,15.94
2022-08-29T05:23:17.804Z,15.95
2022-08-29T05:25:44.673Z,15.98
2022-08-29T05:28:13.314Z,16.24
2022-08-29T05:30:40.938Z,16.24
2022-08-29T05:33:08.529Z,16.17
2022-08-29T05:35:35.516Z,16.16
2022-08-29T05:38:14.747Z,15.78
2022-08-29T05:40:42.294Z,16.01
2022-08-29T05:43:10.439Z,16.04
2022-08-29T05:45:37.860Z,15.93
2022-08-29T05:48:06.340Z,15.99
2022-08-29T05:50:32.837Z,16.22
2022-08-29T05:52:59.315Z,16.09
2022-08-29T05:55:25.755Z,16.19
2022-08-29T05:57:54.469Z,16.47
2022-08-29T06:00:21.151Z,16.02
2022-08-29T06:02:47.770Z,16.14
2022-08-29T06:05:17.616Z,16.22
2022-08-29T06:07:44.062Z,16.54
2022-08-29T06:10:10.536Z,16.26
2022-08-29T06:12:37.275Z,16.40
2022-08-29T06:15:04.399Z,16.06
2022-08-29T06:17:30.869Z,16.15
2022-08-29T06:19:57.693Z,16.53
2022-08-29T06:22:24.273Z,16.60
2022-08-29T06:24:54.878Z,16.44
2022-08-29T06:27:24.148Z,16.12
2022-08-29T06:29:50.650Z,16.37
2022-08-29T06:32:17.274Z,16.67
2022-08-29T06:34:43.779Z,16.56
2022-08-29T06:37:10.451Z,16.54
2022-08-29T06:39:36.967Z,16.64
2022-08-29T06:42:03.696Z,16.41
2022-08-29T06:44:31.333Z,16.84
2022-08-29T06:46:58.420Z,16.91
2022-08-29T06:49:25.800Z,16.54
2022-08-29T06:51:56.935Z,16.48
2022-08-29T06:54:25.776Z,16.64
2022-08-29T06:56:54.869Z,16.89
2022-08-29T06:59:21.344Z,16.89
2022-08-29T07:01:48.182Z,16.91
2022-08-29T07:04:15.213Z,17.08
2022-08-29T07:06:42.587Z,17.09
2022-08-29T07:09:10.103Z,17.10
2022-08-29T07:11:41.272Z,17.15
2022-08-29T07:14:08.703Z,17.28
2022-08-29T07:16:35.865Z,16.98
2022-08-29T07:19:04.135Z,17.03
2022-08-29T07:21:30.512Z,17.26
2022-08-29T07:23:57.902Z,17.20
2022-08-29T07:26:28.660Z,17.01
2022-08-29T07:28:58.648Z,17.02
2022-08-29T07:31:25.476Z,17.19
2022-08-29T07:34:01.901Z,17.32
2022-08-29T07:36:29.526Z,17.66
2022-08-29T07:38:56.056Z,17.96
2022-08-29T07:41:24.152Z,17.61
2022-08-29T07:43:50.871Z,17.25
2022-08-29T07:46:20.219Z,17.41
2022-08-29T07:48:47.709Z,17.42
2022-08-29T07:51:17.096Z,17.27
2022-08-29T07:53:43.782Z,17.57
2022-08-29T07:56:13.739Z,17.52
2022-08-29T07:58:41.006Z,17.71
2022-08-29T08:01:09.863Z,17.46
2022-08-29T08:03:44.109Z,17.40
2022-08-29T08:06:11.972Z,17.60
2022-08-29T08:08:39.429Z,17.69
2022-08-29T08:11:08.683Z,17.67
2022-08-29T08:13:36.563Z,17.28
2022-08-29T08:16:09.436Z,17.83
2022-08-29T08:18:37.780Z,18.09
2022-08-29T08:21:04.647Z,18.09
2022-08-29T08:23:31.521Z,17.56
2022-08-29T08:25:58.372Z,17.77
2022-08-29T08:28:25.055Z,17.68
2022-08-29T08:30:52.235Z,18.04
2022-08-29T08:33:18.755Z,17.55
2022-08-29T08:35:46.804Z,17.54
2022-08-29T08:38:13.965Z,17.59
2022-08-29T08:41:14.740Z,17.52
2022-08-29T08:43:57.152Z,17.74
2022-08-29T08:46:33.959Z,18.02
2022-08-29T08:49:03.529Z,18.06
2022-08-29T08:51:34.861Z,18.24
2022-08-29T08:54:04.495Z,18.31
2022-08-29T08:56:31.070Z,18.08
2022-08-29T08:59:25.245Z,18.03
2022-08-29T09:01:57.757Z,18.10
2022-08-29T09:04:48.179Z,18.07
2022-08-29T09:07:23.930Z,17.95
2022-08-29T09:10:04.201Z,17.99
2022-08-29T09:12:36.579Z,17.89
2022-08-29T09:15:13.605Z,18.21
2022-08-29T09:17:49.343Z,17.99
2022-08-29T09:20:31.680Z,18.07
2022-08-29T09:23:03.542Z,18.06
2022-08-29T09:25:31.224Z,18.07
2022-08-29T09:27:59.090Z,17.95
2022-08-29T09:30:29.647Z,17.78
2022-08-29T09:33:00.792Z,17.68
2022-08-29T09:35:37.376Z,17.52
2022-08-29T09:38:06.074Z,17.41
2022-08-29T09:40:55.656Z,17.32
2022-08-29T09:43:30.332Z,17.33
2022-08-29T09:46:16.142Z,17.34
2022-08-29T09:48:59.498Z,17.34
2022-08-29T09:51:34.432Z,17.50
2022-08-29T09:54:12.767Z,17.46
2022-08-29T09:56:48.658Z,17.58
2022-08-29T09:59:33.914Z,17.60
2022-08-29T10:02:22.913Z,17.68
2022-08-29T10:04:56.221Z,17.78
2022-08-29T10:07:28.050Z,17.97
2022-08-29T10:10:00.326Z,18.01
2022-08-29T10:12:35.437Z,18.07
2022-08-29T10:15:07.279Z,18.10
2022-08-29T10:18:02.508Z,18.06
2022-08-29T10:20:42.959Z,18.13
2022-08-29T10:23:37.863Z,18.27
2022-08-29T10:26:44.891Z,18.30
2022-08-29T10:29:49.776Z,18.38
2022-08-29T10:32:46.875Z,18.14
2022-08-29T10:35:31.019Z,18.28
2022-08-29T10:38:04.561Z,18.15
2022-08-29T10:40:43.092Z,18.03
2022-08-29T10:43:34.919Z,17.99
2022-08-29T10:46:06.565Z,18.16
2022-08-29T10:49:12.980Z,18.18
2022-08-29T10:51:47.083Z,18.27
2022-08-29T10:54:34.774Z,18.16
2022-08-29T10:57:04.619Z,18.23
2022-08-29T10:59:50.747Z,18.12
2022-08-29T11:02:26.996Z,18.29
2022-08-29T11:04:56.929Z,18.46
2022-08-29T11:07:31.992Z,18.51
2022-08-29T11:10:10.935Z,18.22
2022-08-29T11:12:44.959Z,18.19
2022-08-29T11:15:22.116Z,17.86
2022-08-29T11:18:06.389Z,17.84
2022-08-29T11:20:39.344Z,18.00
2022-08-29T11:23:35.461Z,17.86
2022-08-29T11:26:29.299Z,17.92
2022-08-29T11:29:21.043Z,18.11
2022-08-29T11:31:57.813Z,17.94
2022-08-29T11:34:43.196Z,18.00
2022-08-29T11:37:12.738Z,18.02
2022-08-29T11:39:47.238Z,18.44
2022-08-29T11:42:49.794Z,18.18
2022-08-29T11:45:06.519Z,18.53
2022-08-29T11:47:45.267Z,18.54
2022-08-29T11:50:35.385Z,18.54
2022-08-29T11:53:16.837Z,18.51
2022-08-29T11:55:46.119Z,18.56
2022-08-29T11:58:15.340Z,18.28
2022-08-29T12:00:47.966Z,18.12
2022-08-29T12:03:37.840Z,18.00
2022-08-29T12:06:14.601Z,18.03
2022-08-29T12:08:51.987Z,18.12
2022-08-29T12:11:19.128Z,18.02
2022-08-29T12:13:48.352Z,17.97
2022-08-29T12:16:19.405Z,17.79
2022-08-29T12:18:54.421Z,17.91
2022-08-29T12:21:36.184Z,17.88
2022-08-29T12:24:25.774Z,17.81
2022-08-29T12:26:52.765Z,17.78
2022-08-29T12:29:25.583Z,18.05
2022-08-29T12:32:23.930Z,18.03
2022-08-29T12:34:51.372Z,18.15
2022-08-29T12:37:57.436Z,18.24
2022-08-29T12:40:35.794Z,18.48
2022-08-29T12:43:31.000Z,18.42
2022-08-29T12:45:58.520Z,18.68
2022-08-29T12:48:57.380Z,18.53
2022-08-29T12:51:39.685Z,18.42
2022-08-29T12:54:08.464Z,18.51
2022-08-29T12:56:42.781Z,18.50
2022-08-29T12:59:17.451Z,18.32
2022-08-29T13:01:49.221Z,18.28
2022-08-29T13:04:31.973Z,18.34
2022-08-29T13:07:02.627Z,18.46
2022-08-29T13:09:41.273Z,18.33
2022-08-29T13:12:11.635Z,18.43
2022-08-29T13:14:56.939Z,18.63
2022-08-29T13:17:36.366Z,18.85
2022-08-29T13:20:40.332Z,18.54
2022-08-29T13:23:12.923Z,18.71
2022-08-29T13:26:02.293Z,18.87
2022-08-29T13:28:34.657Z,18.90
2022-08-29T13:31:05.724Z,18.99
2022-08-29T13:33:35.454Z,19.16
2022-08-29T13:36:28.024Z,18.97
2022-08-29T13:39:19.053Z,18.97
2022-08-29T13:41:51.020Z,18.89
2022-08-29T13:44:23.787Z,18.83
2022-08-29T13:46:52.347Z,18.64
2022-08-29T13:49:21.496Z,18.50
2022-08-29T13:51:48.083Z,18.67
2022-08-29T13:54:14.682Z,18.65
2022-08-29T13:56:42.198Z,18.56
2022-08-29T13:59:11.552Z,18.69
2022-08-29T14:04:38.170Z,18.53
2022-08-29T14:07:07.059Z,18.83
2022-08-29T14:09:39.916Z,18.96
2022-08-29T14:12:07.511Z,18.80
2022-08-29T14:14:34.211Z,18.63
2022-08-29T14:17:00.693Z,18.33
2022-08-29T14:19:29.065Z,18.31
2022-08-29T14:21:59.031Z,18.19
2022-08-29T14:24:28.953Z,18.33
2022-08-29T14:27:01.650Z,18.28
2022-08-29T14:29:33.708Z,18.28
2022-08-29T14:32:03.194Z,18.47
2022-08-29T14:34:32.732Z,18.41
2022-08-29T14:37:01.729Z,18.44
2022-08-29T14:39:28.880Z,18.62
2022-08-29T14:41:55.504Z,18.72
2022-08-29T14:44:27.373Z,18.78
2022-08-29T14:46:53.944Z,18.94
2022-08-29T14:49:20.423Z,19.70
2022-08-29T14:51:47.126Z,21.97
2022-08-29T14:54:14.137Z,21.87
2022-08-29T14:56:48.680Z,21.78
2022-08-29T14:59:17.561Z,21.75
2022-08-29T15:01:44.252Z,20.82
2022-08-29T15:04:11.201Z,20.38
2022-08-29T15:06:38.322Z,19.99
2022-08-29T15:09:05.170Z,19.56
2022-08-29T15:11:31.803Z,19.70
2022-08-29T15:14:04.464Z,19.41
2022-08-29T15:16:32.689Z,19.30
2022-08-29T15:21:45.875Z,19.15
2022-08-29T15:24:12.384Z,19.26
2022-08-29T15:26:39.235Z,19.34
2022-08-29T15:29:05.816Z,19.42
2022-08-29T15:31:32.406Z,19.94
2022-08-29T15:34:02.483Z,19.89
2022-08-29T15:36:29.329Z,20.12
2022-08-29T15:38:55.892Z,19.64
2022-08-29T15:41:23.621Z,19.35
2022-08-29T15:43:50.213Z,19.31
2022-08-29T15:46:19.720Z,19.11
2022-08-29T15:48:48.466Z,19.20
2022-08-29T15:51:15.025Z,19.60
2022-08-29T15:53:42.019Z,19.50
2022-08-29T15:56:08.643Z,19.59
2022-08-29T15:58:36.163Z,19.61
2022-08-29T16:01:04.989Z,20.27
2022-08-29T16:03:31.897Z,20.76
2022-08-29T16:05:58.903Z,21.16
2022-08-29T16:08:27.766Z,21.37
2022-08-29T16:10:56.435Z,21.52
2022-08-29T16:13:24.220Z,21.24
2022-08-29T16:15:50.831Z,21.04
2022-08-29T16:18:17.512Z,21.06
2022-08-29T16:20:44.156Z,21.01
2022-08-29T16:23:11.345Z,20.78
2022-08-29T16:25:38.451Z,20.34
2022-08-29T16:28:06.575Z,20.59
2022-08-29T16:30:33.346Z,20.50
2022-08-29T16:32:59.919Z,20.46
2022-08-29T16:35:32.780Z,20.01
2022-08-29T16:38:03.058Z,20.07
2022-08-29T16:40:30.375Z,19.57
2022-08-29T16:42:56.952Z,19.39
2022-08-29T16:45:23.980Z,19.73
2022-08-29T16:47:54.125Z,20.17
2022-08-29T16:50:26.463Z,19.99
2022-08-29T16:52:53.528Z,21.85
2022-08-29T16:55:20.680Z,23.91
2022-08-29T16:58:07.113Z,24.29
2022-08-29T17:00:33.840Z,24.17
2022-08-29T17:03:00.646Z,24.61
2022-08-29T17:05:27.267Z,22.30
2022-08-29T17:07:56.512Z,20.92
2022-08-29T17:10:22.947Z,20.75
2022-08-29T17:12:49.538Z,20.41
2022-08-29T17:15:17.641Z,19.84
2022-08-29T17:17:44.116Z,19.89
2022-08-29T17:20:11.847Z,19.84
2022-08-29T17:22:39.347Z,19.71
2022-08-29T17:25:06.351Z,20.00
2022-08-29T17:27:33.051Z,19.63
2022-08-29T17:29:59.540Z,19.40
2022-08-29T17:32:26.100Z,19.87
2022-08-29T17:34:52.845Z,20.54
2022-08-29T17:37:20.614Z,20.95
2022-08-29T17:39:47.340Z,21.02
2022-08-29T17:42:14.297Z,20.58
2022-08-29T17:44:40.913Z,19.87
2022-08-29T17:47:07.361Z,19.54
2022-08-29T17:49:33.966Z,19.06
2022-08-29T17:52:00.672Z,18.82
2022-08-29T17:54:27.156Z,18.72
2022-08-29T17:56:56.196Z,19.13
2022-08-29T17:59:26.405Z,19.04
2022-08-29T18:01:53.751Z,18.71
2022-08-29T18:04:20.666Z,18.54
2022-08-29T18:06:47.169Z,18.04
2022-08-29T18:09:14.458Z,17.79
2022-08-29T18:11:43.598Z,17.89
2022-08-29T18:14:11.103Z,17.93
2022-08-29T18:16:37.821Z,17.62
2022-08-29T18:19:05.565Z,17.34
2022-08-29T18:21:33.013Z,17.21
2022-08-29T18:24:00.025Z,17.31
2022-08-29T18:26:26.841Z,17.11
2022-08-29T18:28:54.757Z,16.98
2022-08-29T18:31:22.228Z,16.91
2022-08-29T18:34:04.166Z,16.87
2022-08-29T18:36:32.540Z,16.80
2022-08-29T18:38:59.256Z,16.69
2022-08-29T18:41:25.919Z,16.63
2022-08-29T18:43:52.531Z,16.45
2022-08-29T18:46:20.089Z,16.31
2022-08-29T18:48:46.898Z,16.24
2022-08-29T18:51:14.679Z,16.13
2022-08-29T18:53:41.504Z,16.09
2022-08-29T18:56:08.032Z,15.99
2022-08-29T18:58:35.088Z,15.91
2022-08-29T19:01:27.068Z,15.87
2022-08-29T19:03:55.271Z,15.67
2022-08-29T19:06:22.661Z,15.64
2022-08-29T19:08:49.171Z,15.59
2022-08-29T19:11:15.743Z,15.53
2022-08-29T19:13:42.220Z,15.37
2022-08-29T19:16:10.012Z,15.26
2022-08-29T19:18:36.995Z,15.15
2022-08-29T19:21:07.347Z,15.18
2022-08-29T19:23:38.835Z,15.08
2022-08-29T19:26:09.879Z,15.02
2022-08-29T19:28:36.534Z,15.01
2022-08-29T19:31:04.370Z,15.00
2022-08-29T19:33:31.016Z,14.88
2022-08-29T19:35:57.534Z,14.81
2022-08-29T19:38:24.075Z,14.73
2022-08-29T19:40:55.339Z,14.77
2022-08-29T19:43:25.044Z,14.75
2022-08-29T19:45:52.074Z,14.64
2022-08-29T19:48:19.119Z,14.72
2022-08-29T19:50:47.731Z,14.67
2022-08-29T19:53:19.943Z,14.60
2022-08-29T19:55:55.188Z,14.64
2022-08-29T19:58:22.649Z,14.56
2022-08-29T20:00:55.423Z,14.56
2022-08-29T20:03:22.364Z,14.48
2022-08-29T20:05:48.907Z,14.53
2022-08-29T20:08:15.413Z,14.53
2022-08-29T20:10:44.522Z,14.54
2022-08-29T20:13:17.341Z,14.53
2022-08-29T20:15:44.246Z,14.43
2022-08-29T20:18:10.769Z,14.40
2022-08-29T20:20:40.090Z,14.29
2022-08-29T20:23:07.832Z,14.26
2022-08-29T20:25:35.120Z,14.25
2022-08-29T20:28:02.693Z,14.22
2022-08-29T20:30:31.500Z,14.11
2022-08-29T20:32:58.691Z,14.02
2022-08-29T20:35:44.376Z,13.89
2022-08-29T20:38:11.160Z,13.82
2022-08-29T20:40:40.196Z,13.73
2022-08-29T20:43:06.883Z,13.67
2022-08-29T20:45:33.829Z,13.68
2022-08-29T20:48:01.826Z,13.67
2022-08-29T20:52:56.285Z,13.55
2022-08-29T20:55:23.491Z,13.41
2022-08-29T20:57:50.317Z,13.36
2022-08-29T21:00:19.732Z,13.31
2022-08-29T21:03:05.328Z,13.30
2022-08-29T21:05:41.565Z,13.22
2022-08-29T21:08:15.042Z,13.08
2022-08-29T21:10:42.320Z,13.00
2022-08-29T21:13:09.541Z,12.87
2022-08-29T21:15:38.377Z,12.78
2022-08-29T21:18:05.731Z,12.76
2022-08-29T21:20:35.261Z,12.67
2022-08-29T21:23:04.803Z,12.69
2022-08-29T21:25:31.336Z,12.73
2022-08-29T21:27:57.807Z,12.62
2022-08-29T21:30:26.309Z,12.64
2022-08-29T21:32:54.749Z,12.58
2022-08-29T21:35:22.262Z,12.55
2022-08-29T21:37:49.716Z,12.47
2022-08-29T21:40:16.996Z,12.48
2022-08-29T21:42:43.616Z,12.41
2022-08-29T21:45:10.467Z,12.36
2022-08-29T21:47:37.833Z,12.27
2022-08-29T21:50:05.672Z,12.28
2022-08-29T21:52:34.464Z,12.33
2022-08-29T21:55:01.829Z,12.34
2022-08-29T21:57:46.862Z,12.35
2022-08-29T22:00:14.283Z,12.33
2022-08-29T22:02:42.161Z,12.27
2022-08-29T22:05:08.815Z,12.29
2022-08-29T22:07:35.297Z,12.39
2022-08-29T22:10:01.744Z,12.30
2022-08-29T22:12:28.756Z,12.35
2022-08-29T22:15:14.032Z,12.29
2022-08-29T22:17:40.937Z,12.35
2022-08-29T22:20:07.748Z,12.35
2022-08-29T22:22:34.916Z,12.39
2022-08-29T22:25:01.479Z,12.35
2022-08-29T22:27:27.965Z,12.44
2022-08-29T22:29:55.043Z,12.50
2022-08-29T22:32:21.505Z,12.47
2022-08-29T22:34:48.723Z,12.48
2022-08-29T22:37:15.288Z,12.47
2022-08-29T22:39:42.081Z,12.59
2022-08-29T22:42:08.587Z,12.50
2022-08-29T22:45:02.273Z,12.57
2022-08-29T22:47:21.739Z,12.55
2022-08-29T22:49:48.208Z,12.47
2022-08-29T22:52:14.709Z,12.62
2022-08-29T22:54:41.237Z,12.59
2022-08-29T22:57:10.862Z,12.62
2022-08-29T22:59:39.102Z,12.54
2022-08-29T23:02:07.023Z,12.47
2022-08-29T23:04:34.281Z,12.42
2022-08-29T23:07:00.963Z,12.35
2022-08-29T23:09:28.442Z,12.27
2022-08-29T23:12:01.772Z,12.34
2022-08-29T23:14:29.796Z,12.27
2022-08-29T23:16:56.322Z,12.37
2022-08-29T23:19:22.924Z,12.34
2022-08-29T23:21:50.324Z,12.14
2022-08-29T23:24:17.797Z,12.06
2022-08-29T23:26:44.291Z,11.92
2022-08-29T23:29:10.812Z,11.75
2022-08-29T23:31:37.388Z,11.66
2022-08-29T23:34:04.085Z,11.62
2022-08-29T23:36:30.641Z,11.52
2022-08-29T23:38:57.143Z,11.43
2022-08-29T23:41:23.989Z,11.39
2022-08-29T23:43:50.756Z,11.36
2022-08-29T23:46:18.341Z,11.28
2022-08-29T23:48:44.932Z,11.20
2022-08-29T23:51:14.492Z,11.26
2022-08-29T23:53:41.909Z,11.16
2022-08-29T23:56:17.198Z,11.16
2022-08-29T23:58:43.896Z,11.13
